Time;durP1;ratioP1;P1;durP2;ratioP2;P2;SDS_P1;SDS_P2;PMS_P1;PMS_P2;Temp;Humidity;BMP_temperature;BMP_pressure;BME280_temperature;BME280_humidity;BME280_pressure;Samples;Min_cycle;Max_cycle;Signal;HPM_P1;HPM_P2
2022/09/09 00:01:32;;;;;;;;;3.20;1.80;;;;;19.21;57.66;100347.75;5010941;28;45477;-55
2022/09/09 00:04:05;;;;;;;;;1.20;1.20;;;;;19.14;57.58;100358.31;5013597;28;45457;-58
2022/09/09 00:06:35;;;;;;;;;1.40;1.00;;;;;19.12;57.88;100345.81;5027306;28;45432;-58
2022/09/09 00:09:18;;;;;;;;;4.00;2.80;;;;;18.72;57.76;100285.19;5013562;28;45322;-55
2022/09/09 00:11:56;;;;;;;;;2.80;2.00;;;;;19.09;57.69;100341.63;5015281;28;45420;-53
2022/09/09 00:14:43;;;;;;;;;4.00;3.60;;;;;19.13;58.11;100348.31;5013190;28;45605;-51
2022/09/09 00:17:14;;;;;;;;;4.00;4.00;;;;;18.76;57.93;100286.31;5013197;28;45428;-54
2022/09/09 00:20:01;;;;;;;;;3.00;3.00;;;;;18.92;57.81;100316.88;5012695;28;45431;-55
2022/09/09 00:22:28;;;;;;;;;1.40;1.40;;;;;19.08;57.96;100342.75;5014409;28;45273;-55
2022/09/09 00:24:55;;;;;;;;;0.20;0.20;;;;;19.09;57.83;100348.03;4995073;28;45499;-54
2022/09/09 00:27:27;;;;;;;;;4.00;2.40;;;;;19.05;58.04;100343.31;5012956;28;45392;-54
2022/09/09 00:30:23;;;;;;;;;8.40;6.20;;;;;19.06;58.06;100348.59;5014201;28;45397;-53
2022/09/09 00:32:50;;;;;;;;;3.20;2.20;;;;;19.06;58.00;100351.38;5014194;28;45323;-52
2022/09/09 00:35:25;;;;;;;;;2.20;1.00;;;;;18.57;58.21;100277.66;5012867;28;46965;-53
2022/09/09 00:37:53;;;;;;;;;3.00;1.00;;;;;19.00;58.36;100341.31;5015481;28;45343;-51
2022/09/09 00:40:37;;;;;;;;;1.60;1.60;;;;;19.01;58.25;100343.03;5016217;28;45417;-53
2022/09/09 00:43:25;;;;;;;;;5.20;3.20;;;;;18.99;58.55;100341.63;5016186;28;45596;-51
2022/09/09 00:46:28;;;;;;;;;4.00;4.00;;;;;18.94;59.15;100350.81;5031842;28;46053;-52
2022/09/09 00:48:57;;;;;;;;;2.60;1.60;;;;;18.66;58.87;100298.25;5016941;28;45433;-50
2022/09/09 00:51:47;;;;;;;;;2.40;2.00;;;;;18.89;59.14;100350.81;5017320;28;45191;-54
2022/09/09 00:54:16;;;;;;;;;2.60;2.00;;;;;18.89;58.96;100332.16;5016018;28;45882;-54
2022/09/09 00:57:18;;;;;;;;;3.60;1.00;;;;;18.32;59.22;100257.13;5016775;28;47071;-52
2022/09/09 00:59:49;;;;;;;;;3.00;1.40;;;;;18.82;59.37;100335.22;5017033;28;45408;-53
2022/09/09 01:02:56;;;;;;;;;2.40;0.60;;;;;18.68;59.69;100309.09;5015907;28;45265;-52
2022/09/09 01:05:36;;;;;;;;;1.60;0.40;;;;;18.82;59.55;100317.69;5007917;28;45423;-53
2022/09/09 01:08:03;;;;;;;;;3.00;0.60;;;;;18.51;59.52;100285.19;5015806;28;46295;-56
2022/09/09 01:10:41;;;;;;;;;2.00;2.00;;;;;18.74;59.85;100341.34;4999075;28;45378;-52
2022/09/09 01:13:12;;;;;;;;;3.00;2.00;;;;;18.61;59.68;100300.22;5015949;28;45529;-56
2022/09/09 01:15:38;;;;;;;;;3.60;2.20;;;;;18.75;59.96;100331.91;5000031;28;45629;-52
2022/09/09 01:18:14;;;;;;;;;2.00;1.00;;;;;18.77;59.89;100320.47;5016423;28;46156;-54
2022/09/09 01:20:52;;;;;;;;;2.60;1.80;;;;;18.74;59.99;100330.22;5031787;28;45417;-54
2022/09/09 01:23:54;;;;;;;;;3.00;1.00;;;;;18.71;59.68;100319.66;5014200;28;45475;-54
2022/09/09 01:26:42;;;;;;;;;5.00;3.00;;;;;18.68;60.02;100309.09;5016742;28;45769;-55
2022/09/09 01:29:09;;;;;;;;;2.60;1.00;;;;;18.63;60.01;100323.00;5003067;28;47033;-52
2022/09/09 01:32:01;;;;;;;;;1.80;1.60;;;;;18.67;60.19;100326.84;5016511;28;45415;-52
2022/09/09 01:34:30;;;;;;;;;1.00;1.00;;;;;18.70;60.17;100326.31;5015428;28;45656;-52
2022/09/09 01:37:08;;;;;;;;;3.60;1.60;;;;;18.19;60.17;100244.56;5009559;28;45548;-51
2022/09/09 01:39:34;;;;;;;;;0.20;0.20;;;;;18.53;60.02;100307.94;5025200;28;47496;-54
2022/09/09 01:42:00;;;;;;;;;1.00;1.00;;;;;18.71;60.10;100325.22;4998898;28;45382;-55
2022/09/09 01:44:25;;;;;;;;;3.00;2.00;;;;;18.72;60.13;100321.31;5016508;28;45348;-54
2022/09/09 01:46:51;;;;;;;;;1.25;1.25;;;;;18.48;60.07;100307.97;5016523;28;45623;-52
2022/09/09 01:59:48;;;;;;;;;1.00;1.00;;;;;18.79;59.85;100319.09;5016305;28;45459;-54
2022/09/09 02:02:35;;;;;;;;;1.00;1.00;;;;;18.79;60.16;100315.50;4986063;28;46211;-56
2022/09/09 02:05:39;;;;;;;;;1.00;1.00;;;;;18.78;59.97;100311.88;5001045;28;45735;-56
2022/09/09 02:08:21;;;;;;;;;4.40;1.00;;;;;18.76;60.18;100322.44;4997976;28;45358;-52
2022/09/09 02:11:13;;;;;;;;;3.40;2.20;;;;;18.73;60.24;100327.72;5007967;28;45451;-56
2022/09/09 02:13:39;;;;;;;;;3.40;1.40;;;;;18.70;60.18;100326.31;5014034;28;45466;-54
2022/09/09 02:16:12;;;;;;;;;2.75;1.50;;;;;18.60;60.09;100309.63;5015630;28;45327;-55
2022/09/09 02:18:48;;;;;;;;;3.00;1.20;;;;;18.57;60.30;100311.00;5013508;28;45684;-51
2022/09/09 02:21:13;;;;;;;;;5.20;2.20;;;;;18.60;60.36;100318.81;5014691;28;45399;-55
2022/09/09 02:23:40;;;;;;;;;1.25;1.25;;;;;18.61;60.55;100308.53;5014565;28;45575;-53
2022/09/09 02:26:07;;;;;;;;;1.00;1.00;;;;;18.58;60.24;100298.81;4998276;28;45358;-52
2022/09/09 02:28:33;;;;;;;;;3.00;3.00;;;;;18.63;60.26;100312.69;4982060;28;45344;-54
2022/09/09 02:30:58;;;;;;;;;1.00;1.00;;;;;18.22;60.35;100254.31;4998289;28;45392;-53
2022/09/09 02:33:28;;;;;;;;;1.50;1.00;;;;;18.61;60.65;100298.25;4997682;28;46069;-56
2022/09/09 02:35:56;;;;;;;;;1.00;1.00;;;;;18.64;60.48;100305.19;5014572;28;45473;-55
2022/09/09 02:38:21;;;;;;;;;3.00;3.00;;;;;18.59;60.73;100311.59;5014309;28;45375;-54
2022/09/09 02:40:48;;;;;;;;;3.00;2.00;;;;;18.53;60.73;100307.94;5014603;28;45194;-55
2022/09/09 02:43:16;;;;;;;;;2.00;1.00;;;;;18.55;60.69;100311.31;5014375;28;45823;-52
2022/09/09 02:45:51;;;;;;;;;3.20;2.20;;;;;18.48;60.75;100307.13;5015055;28;45374;-54
2022/09/09 02:48:29;;;;;;;;;1.80;1.80;;;;;18.59;60.75;100299.63;4978806;28;45630;-55
2022/09/09 02:51:01;;;;;;;;;0.20;0.20;;;;;18.40;60.96;100266.81;4995784;28;45430;-55
2022/09/09 02:53:39;;;;;;;;;3.00;2.00;;;;;18.60;60.70;100298.50;4978909;28;46089;-55
2022/09/09 02:56:07;;;;;;;;;5.00;3.00;;;;;18.62;60.71;100297.13;4995686;28;45379;-52
2022/09/09 02:58:32;;;;;;;;;2.80;1.80;;;;;18.65;60.07;100290.19;4994284;28;45358;-56
2022/09/09 03:00:58;;;;;;;;;4.00;4.00;;;;;18.63;60.63;100301.56;4988526;28;45352;-52
2022/09/09 03:03:24;;;;;;;;;2.00;1.75;;;;;18.62;60.79;100291.56;4995235;28;45456;-55
2022/09/09 03:05:49;;;;;;;;;1.00;1.00;;;;;18.60;60.97;100299.34;4995733;28;45766;-51
2022/09/09 03:08:15;;;;;;;;;2.00;1.00;;;;;18.56;61.04;100290.75;4994077;28;45423;-56
2022/09/09 03:10:41;;;;;;;;;3.75;2.00;;;;;18.56;60.88;100296.31;4994056;28;45582;-52
2022/09/09 03:13:06;;;;;;;;;3.75;2.00;;;;;18.56;61.12;100287.13;4995431;28;45831;-52
2022/09/09 03:15:35;;;;;;;;;2.75;1.75;;;;;18.53;61.11;100305.19;4993790;28;45360;-55
2022/09/09 03:18:00;;;;;;;;;2.60;1.40;;;;;18.52;61.21;100306.28;4995424;28;45460;-54
2022/09/09 03:20:27;;;;;;;;;3.75;2.25;;;;;18.54;61.17;100300.47;4995298;28;45564;-54
2022/09/09 03:22:56;;;;;;;;;3.00;3.00;;;;;18.35;61.19;100264.06;4994860;28;46018;-54
2022/09/09 03:25:23;;;;;;;;;4.40;2.40;;;;;17.88;60.97;100186.22;4983609;28;45419;-52
2022/09/09 03:27:49;;;;;;;;;3.60;1.20;;;;;18.55;60.94;100302.97;4995286;28;45477;-53
2022/09/09 03:30:15;;;;;;;;;1.40;1.40;;;;;18.54;61.04;100300.47;4995363;28;45557;-55
2022/09/09 03:32:41;;;;;;;;;2.00;0.50;;;;;18.51;61.18;100298.25;4995293;28;46576;-54
2022/09/09 03:35:07;;;;;;;;;2.75;2.75;;;;;18.45;61.19;100285.47;4995015;28;45466;-55
2022/09/09 03:37:32;;;;;;;;;4.20;3.00;;;;;18.46;61.23;100306.56;4994159;28;45463;-53
2022/09/09 03:39:59;;;;;;;;;3.00;3.00;;;;;18.45;61.17;100296.56;4995294;28;45677;-52
2022/09/09 03:42:25;;;;;;;;;3.40;3.00;;;;;18.40;61.61;100294.59;4995170;28;45773;-55
2022/09/09 03:44:51;;;;;;;;;2.00;2.00;;;;;18.29;61.60;100282.66;4995070;28;45358;-54
2022/09/09 03:47:21;;;;;;;;;2.80;2.20;;;;;18.38;61.45;100294.91;5006922;28;45364;-55
2022/09/09 03:49:47;;;;;;;;;5.80;3.00;;;;;18.38;61.44;100294.91;4997475;28;45435;-55
2022/09/09 03:52:12;;;;;;;;;4.75;3.25;;;;;18.35;61.60;100292.66;4996544;28;45605;-53
2022/09/09 03:54:37;;;;;;;;;3.00;2.50;;;;;17.87;61.57;100223.38;5014735;28;45414;-56
2022/09/09 03:57:04;;;;;;;;;2.00;2.00;;;;;18.35;61.63;100292.66;5013308;28;45327;-54
2022/09/09 03:59:30;;;;;;;;;5.20;1.40;;;;;18.30;61.94;100295.41;5014908;28;45751;-52
2022/09/09 04:01:56;;;;;;;;;1.75;1.75;;;;;17.84;61.83;100227.56;5014612;28;45385;-53
2022/09/09 04:04:22;;;;;;;;;4.80;3.00;;;;;18.24;61.93;100288.19;5014237;28;45885;-55
2022/09/09 04:06:50;;;;;;;;;3.25;1.25;;;;;18.28;61.82;100292.94;5011601;28;45442;-54
2022/09/09 04:09:16;;;;;;;;;5.80;2.00;;;;;18.22;62.07;100282.94;5014667;28;45589;-54
2022/09/09 04:11:41;;;;;;;;;2.00;2.00;;;;;18.18;62.25;100283.75;5014084;28;46694;-54
2022/09/09 04:14:07;;;;;;;;;2.00;2.00;;;;;17.97;62.47;100248.41;5018024;28;45482;-55
2022/09/09 04:16:33;;;;;;;;;3.25;3.25;;;;;18.14;62.16;100284.28;5017875;28;45387;-55
2022/09/09 04:18:59;;;;;;;;;7.80;3.00;;;;;18.10;62.58;100280.38;5013223;28;45624;-56
2022/09/09 04:21:25;;;;;;;;;3.40;3.40;;;;;17.74;62.59;100222.81;5017324;28;45426;-57
2022/09/09 04:23:51;;;;;;;;;3.50;3.00;;;;;18.13;62.76;100285.41;5017336;28;45301;-56
2022/09/09 04:26:17;;;;;;;;;5.00;2.25;;;;;18.10;62.68;100279.56;5032961;28;45275;-55
2022/09/09 04:28:42;;;;;;;;;2.25;2.25;;;;;18.09;63.01;100289.00;5016486;28;45652;-51
2022/09/09 04:31:10;;;;;;;;;3.50;3.50;;;;;18.06;63.05;100284.84;4977947;28;45548;-55
2022/09/09 04:33:36;;;;;;;;;2.40;2.40;;;;;17.80;63.22;100245.00;5017342;28;45355;-53
2022/09/09 04:36:02;;;;;;;;;3.75;3.00;;;;;17.79;63.38;100243.34;5017359;28;45407;-51
2022/09/09 04:38:28;;;;;;;;;4.75;3.00;;;;;18.01;63.06;100284.78;5017852;28;45301;-52
2022/09/09 04:40:53;;;;;;;;;6.25;3.50;;;;;18.01;63.18;100295.88;5017115;28;45767;-55
2022/09/09 04:43:19;;;;;;;;;4.00;3.00;;;;;17.92;63.48;100275.31;5017184;28;45251;-54
2022/09/09 04:45:47;;;;;;;;;6.25;4.00;;;;;17.99;63.50;100298.94;5017438;28;45349;-55
2022/09/09 04:48:12;;;;;;;;;3.00;2.40;;;;;17.39;63.49;100187.47;5017384;28;45334;-55
2022/09/09 04:50:38;;;;;;;;;6.00;3.00;;;;;17.95;63.14;100283.94;5016863;28;45385;-53
2022/09/09 04:53:04;;;;;;;;;6.75;3.00;;;;;17.93;63.48;100291.69;5016156;28;45443;-54
2022/09/09 04:55:34;;;;;;;;;3.60;3.60;;;;;17.77;63.39;100276.91;4999496;28;45299;-53
2022/09/09 04:58:04;;;;;;;;;2.20;2.00;;;;;17.88;63.52;100291.69;5000372;28;45432;-56
2022/09/09 05:00:30;;;;;;;;;3.00;3.00;;;;;17.88;63.45;100295.28;5015474;28;46338;-56
2022/09/09 05:02:56;;;;;;;;;4.00;2.00;;;;;17.57;63.43;100247.16;5017259;28;45504;-56
2022/09/09 05:05:22;;;;;;;;;4.25;3.75;;;;;17.62;63.52;100266.63;5017256;28;45426;-53
2022/09/09 05:07:48;;;;;;;;;3.20;3.20;;;;;17.79;63.71;100296.09;4999539;28;45360;-58
2022/09/09 05:10:14;;;;;;;;;4.25;2.75;;;;;17.73;63.69;100286.91;4998932;28;46360;-53
2022/09/09 05:12:40;;;;;;;;;2.60;2.60;;;;;17.67;63.52;100280.50;4999062;28;45672;-56
2022/09/09 05:15:06;;;;;;;;;4.50;3.75;;;;;17.55;63.67;100272.41;5017145;28;45450;-56
2022/09/09 05:17:33;;;;;;;;;1.40;1.40;;;;;17.81;63.73;100310.50;4998962;28;45340;-54
2022/09/09 05:19:59;;;;;;;;;3.20;2.00;;;;;17.83;63.65;100313.88;5015854;28;46506;-53
2022/09/09 05:22:24;;;;;;;;;1.50;1.50;;;;;17.81;63.88;100314.13;5012691;28;45399;-50
2022/09/09 05:24:50;;;;;;;;;3.50;3.50;;;;;17.82;63.57;100314.97;5016369;28;45438;-53
2022/09/09 05:27:19;;;;;;;;;3.60;3.00;;;;;17.74;63.93;100311.63;4999221;28;45591;-52
2022/09/09 05:29:45;;;;;;;;;3.80;2.40;;;;;17.80;63.98;100326.34;5011433;28;46486;-53
2022/09/09 05:32:10;;;;;;;;;2.00;2.00;;;;;17.69;63.89;100303.28;5030954;28;45752;-53
2022/09/09 05:34:37;;;;;;;;;5.50;3.75;;;;;17.71;64.08;100306.59;5002676;28;45355;-52
2022/09/09 05:37:04;;;;;;;;;2.40;2.20;;;;;17.80;63.85;100315.25;4997421;28;45560;-51
2022/09/09 05:39:29;;;;;;;;;4.20;4.20;;;;;17.77;63.92;100312.19;4997188;28;45344;-54
2022/09/09 05:41:55;;;;;;;;;4.00;3.00;;;;;17.78;63.97;100320.25;4995905;28;45321;-58
2022/09/09 05:44:23;;;;;;;;;3.50;3.50;;;;;17.79;64.37;100326.63;5016708;28;45377;-54
2022/09/09 05:46:49;;;;;;;;;4.20;3.80;;;;;17.81;64.23;100316.91;5014823;28;45797;-54
2022/09/09 05:49:15;;;;;;;;;5.80;3.20;;;;;17.62;64.44;100294.38;5012392;28;45388;-55
2022/09/09 05:51:42;;;;;;;;;5.40;4.00;;;;;17.76;64.45;100316.88;5015953;28;45375;-55
2022/09/09 05:54:08;;;;;;;;;7.80;2.00;;;;;17.85;64.18;100314.44;5016493;28;45427;-55
2022/09/09 05:56:34;;;;;;;;;5.00;3.00;;;;;17.88;64.28;100317.50;5011311;28;45406;-54
2022/09/09 05:59:02;;;;;;;;;2.00;2.00;;;;;17.85;64.46;100309.72;5024990;28;46013;-54
2022/09/09 06:01:30;;;;;;;;;5.60;3.00;;;;;17.89;64.43;100310.00;4995371;28;45988;-55
2022/09/09 06:03:55;;;;;;;;;3.60;2.60;;;;;17.92;64.14;100295.56;5009544;28;45376;-55
2022/09/09 06:06:23;;;;;;;;;3.50;2.00;;;;;18.00;64.33;100308.91;4989113;28;45270;-52
2022/09/09 06:08:51;;;;;;;;;2.80;1.00;;;;;18.01;64.25;100304.22;5015907;28;45680;-56
2022/09/09 06:11:18;;;;;;;;;4.40;3.60;;;;;18.01;64.16;100321.72;5013619;28;45444;-54
2022/09/09 06:13:43;;;;;;;;;2.00;2.00;;;;;18.00;64.17;100317.25;5016337;28;45370;-56
2022/09/09 06:16:13;;;;;;;;;6.00;3.00;;;;;18.04;64.01;100316.72;5015881;28;45320;-56
2022/09/09 06:18:41;;;;;;;;;4.80;3.80;;;;;18.06;64.21;100318.16;5016034;28;45422;-54
2022/09/09 06:21:27;;;;;;;;;3.00;3.00;;;;;17.96;63.86;100290.31;5014419;28;45474;-52
2022/09/09 06:23:53;;;;;;;;;3.40;3.40;;;;;18.15;63.69;100324.84;5015008;28;45355;-56
2022/09/09 06:26:34;;;;;;;;;5.00;3.25;;;;;18.00;63.71;100297.81;5015964;28;45272;-55
2022/09/09 06:29:00;;;;;;;;;3.60;3.00;;;;;18.20;63.59;100326.78;5014481;28;45940;-55
2022/09/09 06:31:29;;;;;;;;;2.00;1.00;;;;;18.23;63.69;100331.81;5031477;28;45452;-52
2022/09/09 06:33:56;;;;;;;;;3.60;1.20;;;;;18.31;63.55;100319.34;5015091;28;45672;-56
2022/09/09 06:36:23;;;;;;;;;4.80;3.00;;;;;18.35;63.38;100314.06;5013900;28;45411;-54
2022/09/09 06:38:48;;;;;;;;;3.80;3.00;;;;;18.26;63.11;100297.09;5015918;28;45897;-53
2022/09/09 06:41:15;;;;;;;;;7.00;3.00;;;;;18.34;63.10;100318.78;5015498;28;45525;-56
2022/09/09 06:43:41;;;;;;;;;2.60;2.60;;;;;18.38;63.16;100321.84;5015732;28;45427;-55
2022/09/09 06:46:09;;;;;;;;;1.75;1.75;;;;;18.35;63.03;100328.78;5015947;28;45639;-55
2022/09/09 06:48:34;;;;;;;;;4.40;3.00;;;;;18.38;63.03;100322.69;5031124;28;45320;-51
2022/09/09 06:51:11;;;;;;;;;2.00;2.00;;;;;18.25;63.10;100310.13;5015291;28;45333;-54
2022/09/09 06:53:37;;;;;;;;;3.40;2.60;;;;;18.31;63.04;100319.34;5015556;28;45423;-50
2022/09/09 06:56:23;;;;;;;;;4.80;3.60;;;;;18.14;63.21;100297.31;5015853;28;45532;-56
2022/09/09 06:58:49;;;;;;;;;4.00;2.80;;;;;18.29;63.11;100330.72;5029522;28;49030;-53
2022/09/09 07:01:19;;;;;;;;;2.80;2.20;;;;;18.05;62.89;100273.97;5014704;28;45476;-55
2022/09/09 07:03:50;;;;;;;;;1.60;1.60;;;;;18.14;63.03;100289.84;5015595;28;45360;-58
2022/09/09 07:06:36;;;;;;;;;4.00;4.00;;;;;18.18;62.74;100287.34;5015545;28;45548;-49
2022/09/09 07:09:04;;;;;;;;;3.00;2.00;;;;;18.50;62.70;100332.69;5014765;28;46090;-50
2022/09/09 07:11:31;;;;;;;;;4.40;3.00;;;;;18.53;62.66;100332.97;5014907;28;45313;-51
2022/09/09 07:13:57;;;;;;;;;2.60;2.60;;;;;18.53;62.36;100338.53;5015459;28;45320;-50
2022/09/09 07:16:27;;;;;;;;;3.40;3.00;;;;;18.59;62.32;100341.31;5015358;28;45411;-53
2022/09/09 07:18:54;;;;;;;;;2.80;1.20;;;;;18.61;62.42;100345.50;5014638;28;45463;-49
2022/09/09 07:21:21;;;;;;;;;3.00;3.00;;;;;18.69;62.35;100341.34;5014316;28;45332;-49
2022/09/09 07:23:46;;;;;;;;;3.60;2.60;;;;;18.80;61.94;100350.50;5014716;28;45342;-49
2022/09/09 07:26:13;;;;;;;;;4.50;3.00;;;;;18.84;61.78;100340.53;5015101;28;45326;-51
2022/09/09 07:28:40;;;;;;;;;4.80;3.00;;;;;18.85;61.46;100349.69;5014423;28;46253;-53
2022/09/09 07:31:06;;;;;;;;;2.60;2.60;;;;;18.89;61.11;100357.19;5014741;28;45389;-49
2022/09/09 07:33:35;;;;;;;;;2.00;1.00;;;;;18.97;61.11;100344.69;5013498;28;45312;-54
2022/09/09 07:36:06;;;;;;;;;4.60;3.60;;;;;18.95;61.01;100344.94;5014435;28;45442;-54
2022/09/09 07:38:37;;;;;;;;;2.80;2.80;;;;;19.04;60.57;100361.94;5013034;28;47416;-53
2022/09/09 07:41:05;;;;;;;;;3.00;2.20;;;;;19.02;60.36;100357.75;5014294;28;45407;-51
2022/09/09 07:43:30;;;;;;;;;3.00;3.00;;;;;19.06;60.17;100361.66;5014690;28;45401;-54
2022/09/09 07:46:01;;;;;;;;;4.50;2.25;;;;;18.58;60.38;100284.06;5015036;28;45527;-54
2022/09/09 07:48:27;;;;;;;;;3.60;3.60;;;;;19.05;60.51;100351.66;5017754;28;46695;-52
2022/09/09 07:50:52;;;;;;;;;4.00;2.00;;;;;19.00;60.76;100343.28;5017676;28;45296;-53
2022/09/09 07:53:19;;;;;;;;;3.00;2.00;;;;;19.13;60.58;100367.78;5013180;28;45404;-54
2022/09/09 07:55:46;;;;;;;;;2.60;2.60;;;;;19.14;60.22;100357.47;5011273;28;45648;-54
2022/09/09 07:58:12;;;;;;;;;3.80;2.40;;;;;19.07;59.98;100352.22;5015739;28;45791;-53
2022/09/09 08:00:38;;;;;;;;;3.25;2.00;;;;;19.04;59.64;100358.31;5014624;28;45475;-54
2022/09/09 08:03:04;;;;;;;;;2.00;2.00;;;;;19.02;59.59;100341.94;5015084;28;45457;-55
2022/09/09 08:05:30;;;;;;;;;2.25;1.50;;;;;19.21;59.62;100370.00;5016257;28;45636;-53
2022/09/09 08:07:55;;;;;;;;;2.50;1.25;;;;;19.19;59.38;100374.16;5008675;28;45850;-53
2022/09/09 08:10:21;;;;;;;;;5.00;3.00;;;;;19.27;59.24;100381.97;5014222;28;45326;-54
2022/09/09 08:12:47;;;;;;;;;2.25;1.25;;;;;19.26;59.57;100391.41;5015584;28;45554;-50
2022/09/09 08:15:12;;;;;;;;;2.50;1.50;;;;;19.20;59.27;100390.59;5015402;28;45311;-52
2022/09/09 08:17:38;;;;;;;;;2.00;2.00;;;;;19.15;59.13;100387.00;5015052;28;46360;-47
2022/09/09 08:20:04;;;;;;;;;3.75;2.00;;;;;19.15;59.20;100398.94;5013666;28;45529;-51
2022/09/09 08:22:30;;;;;;;;;3.80;2.00;;;;;18.58;59.64;100306.31;5015495;28;45505;-48
2022/09/09 08:24:57;;;;;;;;;1.80;1.80;;;;;19.18;59.35;100395.59;5016208;28;45439;-53
2022/09/09 08:27:22;;;;;;;;;3.40;2.20;;;;;19.23;59.15;100394.75;5015529;28;45414;-53
2022/09/09 08:29:48;;;;;;;;;3.00;3.00;;;;;19.28;59.18;100405.06;5015433;28;45403;-53
2022/09/09 08:32:14;;;;;;;;;1.50;1.00;;;;;19.41;59.03;100398.09;5014542;28;45398;-51
2022/09/09 08:34:41;;;;;;;;;1.00;1.00;;;;;19.52;58.79;100398.91;5014937;28;45644;-51
2022/09/09 08:37:06;;;;;;;;;2.60;2.00;;;;;19.54;58.36;100378.03;5015568;28;45446;-52
2022/09/09 08:39:32;;;;;;;;;3.50;2.00;;;;;19.70;58.01;100397.47;5014148;28;45446;-50
2022/09/09 08:42:01;;;;;;;;;2.00;2.00;;;;;19.79;58.16;100401.34;5013785;28;45656;-49
2022/09/09 08:44:54;;;;;;;;;1.40;1.40;;;;;19.84;57.86;100406.91;5014634;28;45802;-55
2022/09/09 08:47:23;;;;;;;;;4.40;4.40;;;;;19.85;57.61;100405.78;5015305;28;45440;-50
2022/09/09 08:50:23;;;;;;;;;5.00;2.00;;;;;19.75;58.11;100389.94;5015707;28;45389;-51
2022/09/09 08:53:07;;;;;;;;;2.00;2.00;;;;;19.35;58.20;100336.88;4999793;28;45631;-54
2022/09/09 08:55:48;;;;;;;;;1.60;1.60;;;;;19.58;57.93;100379.13;5014763;28;45784;-52
2022/09/09 08:58:33;;;;;;;;;3.00;1.00;;;;;19.81;58.37;100415.00;5014835;28;46494;-54
2022/09/09 09:01:08;;;;;;;;;3.00;2.60;;;;;19.74;57.95;100387.47;5015418;28;45345;-52
2022/09/09 09:04:11;;;;;;;;;3.80;2.40;;;;;19.81;57.95;100421.41;5015365;28;45360;-54
2022/09/09 09:06:59;;;;;;;;;2.20;1.20;;;;;19.69;57.74;100376.34;4995329;28;45604;-52
2022/09/09 09:09:45;;;;;;;;;2.60;1.60;;;;;19.90;57.64;100427.19;4981114;28;45733;-55
2022/09/09 09:12:19;;;;;;;;;1.20;1.20;;;;;19.71;57.73;100393.56;4980177;28;45356;-51
2022/09/09 09:14:46;;;;;;;;;2.20;1.60;;;;;19.88;57.36;100430.28;4995774;28;45806;-54
2022/09/09 09:17:13;;;;;;;;;4.20;2.60;;;;;19.84;57.54;100431.16;4977420;28;45547;-54
2022/09/09 09:19:39;;;;;;;;;0.80;0.80;;;;;19.78;57.68;100441.44;4996844;28;45830;-53
2022/09/09 09:22:22;;;;;;;;;1.80;1.80;;;;;19.81;58.20;100445.63;5006916;28;45523;-54
2022/09/09 09:25:08;;;;;;;;;1.80;1.80;;;;;19.72;57.78;100425.88;5014532;28;45374;-52
2022/09/09 09:27:43;;;;;;;;;2.00;2.00;;;;;19.82;57.93;100425.84;5013699;28;45415;-52
2022/09/09 09:30:20;;;;;;;;;3.80;2.40;;;;;19.91;58.05;100438.06;5012943;28;46739;-54
2022/09/09 09:33:00;;;;;;;;;3.00;1.00;;;;;19.84;57.48;100445.06;5012003;28;45911;-51
2022/09/09 09:35:26;;;;;;;;;3.20;1.80;;;;;19.45;57.76;100393.63;5013520;28;45557;-58
2022/09/09 09:37:52;;;;;;;;;3.50;2.00;;;;;19.78;57.65;100442.28;5014686;28;45341;-54
2022/09/09 09:40:21;;;;;;;;;3.75;2.25;;;;;19.83;57.46;100458.16;5014656;28;45366;-53
2022/09/09 09:43:07;;;;;;;;;3.80;1.80;;;;;19.82;57.92;100458.41;5014463;28;45507;-54
2022/09/09 09:45:35;;;;;;;;;3.20;2.80;;;;;19.22;57.99;100371.66;5011935;28;45531;-53
2022/09/09 09:48:06;;;;;;;;;2.40;1.00;;;;;19.78;57.96;100461.78;5013552;28;45433;-52
2022/09/09 09:50:32;;;;;;;;;1.80;1.80;;;;;19.80;57.70;100467.03;5014544;28;46527;-51
2022/09/09 09:53:04;;;;;;;;;3.60;2.60;;;;;19.88;57.62;100462.88;5013997;28;45439;-55
2022/09/09 09:55:31;;;;;;;;;0.80;0.80;;;;;20.02;57.66;100463.16;4978559;28;46105;-54
2022/09/09 09:58:04;;;;;;;;;1.80;1.80;;;;;20.16;57.14;100463.38;4998169;28;45873;-54
2022/09/09 10:00:29;;;;;;;;;2.20;1.80;;;;;20.26;56.46;100459.72;5004834;28;45942;-53
2022/09/09 10:02:56;;;;;;;;;0.00;0.00;;;;;20.40;56.22;100463.59;5004834;28;45535;-55
2022/09/09 10:05:24;;;;;;;;;3.40;2.20;;;;;20.47;56.43;100470.78;5006288;28;45478;-55
2022/09/09 10:08:13;;;;;;;;;2.00;2.00;;;;;20.50;56.18;100465.50;5008088;28;45490;-54
2022/09/09 10:11:14;;;;;;;;;2.20;1.60;;;;;20.51;56.00;100471.88;4988450;28;45742;-52
2022/09/09 10:13:58;;;;;;;;;1.60;1.60;;;;;20.52;55.54;100476.34;4971412;28;45990;-53
2022/09/09 10:16:45;;;;;;;;;1.60;1.60;;;;;20.54;55.74;100486.09;5007811;28;45473;-51
2022/09/09 10:19:14;;;;;;;;;1.40;1.40;;;;;20.55;56.05;100479.38;5000127;28;45451;-55
2022/09/09 10:22:06;;;;;;;;;3.00;3.00;;;;;20.58;55.66;100475.19;5008484;28;46318;-53
2022/09/09 10:24:37;;;;;;;;;1.40;1.40;;;;;20.70;55.45;100481.25;5010073;28;45532;-57
2022/09/09 10:27:18;;;;;;;;;3.40;3.40;;;;;20.79;54.77;100469.50;5007929;28;45488;-51
2022/09/09 10:30:17;;;;;;;;;2.20;2.20;;;;;21.09;54.40;100471.28;5008806;28;45517;-56
2022/09/09 10:32:52;;;;;;;;;1.80;0.80;;;;;21.23;53.79;100482.63;5008504;28;46599;-52
2022/09/09 10:35:33;;;;;;;;;2.40;2.40;;;;;21.05;54.15;100478.59;5009714;28;45558;-54
2022/09/09 10:38:10;;;;;;;;;3.20;2.00;;;;;20.66;54.46;100443.91;4967637;28;45513;-56
2022/09/09 10:40:44;;;;;;;;;2.80;2.00;;;;;20.82;54.40;100489.28;5009363;28;45422;-56
2022/09/09 10:43:39;;;;;;;;;0.80;0.80;;;;;20.79;54.99;100478.72;5006916;28;45572;-57
2022/09/09 10:46:42;;;;;;;;;1.80;1.00;;;;;20.79;54.56;100483.44;4976711;28;46808;-57
2022/09/09 10:49:37;;;;;;;;;0.40;0.20;;;;;20.85;55.02;100482.31;5008886;28;45393;-57
2022/09/09 10:52:18;;;;;;;;;1.80;1.00;;;;;20.86;54.23;100467.25;5006748;28;45442;-57
2022/09/09 10:54:56;;;;;;;;;2.00;2.00;;;;;20.96;54.90;100477.50;4992441;28;45753;-56
2022/09/09 10:57:25;;;;;;;;;1.80;1.80;;;;;21.04;54.29;100473.28;5001498;28;45522;-52
2022/09/09 10:59:53;;;;;;;;;4.60;1.00;;;;;20.91;54.14;100464.44;5024728;28;45493;-55
2022/09/09 11:02:32;;;;;;;;;3.20;2.40;;;;;20.80;54.87;100477.59;5024350;28;45465;-59
2022/09/09 11:05:08;;;;;;;;;1.20;1.20;;;;;20.79;55.60;100472.28;5007550;28;46422;-56
2022/09/09 11:07:52;;;;;;;;;4.00;2.00;;;;;20.84;56.55;100467.56;4994333;28;45549;-59
2022/09/09 11:10:27;;;;;;;;;2.20;1.80;;;;;20.88;56.27;100450.25;5025987;28;45452;-52
2022/09/09 11:12:54;;;;;;;;;3.80;1.40;;;;;21.04;55.90;100435.06;4996988;28;45775;-55
2022/09/09 11:15:28;;;;;;;;;5.00;3.00;;;;;21.31;56.05;100450.50;5013304;28;48715;-57
2022/09/09 11:17:56;;;;;;;;;2.00;2.00;;;;;21.46;54.77;100435.53;4987524;28;45734;-57
2022/09/09 11:20:25;;;;;;;;;2.00;2.00;;;;;21.76;53.99;100460.72;4976708;28;45764;-60
2022/09/09 11:22:51;;;;;;;;;33.80;26.60;;;;;21.88;53.82;100463.13;5013575;28;45488;-60
2022/09/09 11:25:26;;;;;;;;;7.20;7.20;;;;;21.91;52.76;100465.31;5012584;28;47744;-60
2022/09/09 11:27:54;;;;;;;;;3.20;3.00;;;;;21.98;52.39;100459.38;5014342;28;45454;-54
2022/09/09 11:30:30;;;;;;;;;4.00;4.00;;;;;22.06;51.96;100462.38;5014532;28;45823;-60
2022/09/09 11:33:29;;;;;;;;;6.00;3.80;;;;;22.13;52.01;100477.91;5029763;28;45492;-55
2022/09/09 11:36:07;;;;;;;;;3.00;3.00;;;;;22.23;51.09;100469.44;5029704;28;46538;-53
2022/09/09 11:38:51;;;;;;;;;3.00;2.00;;;;;22.05;51.20;100465.44;5014537;28;45357;-60
2022/09/09 11:41:16;;;;;;;;;3.00;1.00;;;;;21.77;51.07;100468.81;5013797;28;45368;-61
2022/09/09 11:43:46;;;;;;;;;1.00;1.00;;;;;21.60;52.75;100477.59;5030129;28;45547;-57
2022/09/09 11:46:12;;;;;;;;;2.20;1.00;;;;;21.33;53.72;100448.22;5014287;28;46207;-56
2022/09/09 11:48:45;;;;;;;;;2.60;1.00;;;;;21.24;55.02;100438.84;4998199;28;45500;-56
2022/09/09 11:51:20;;;;;;;;;3.60;2.00;;;;;21.02;54.95;100369.53;4993415;28;45513;-59
2022/09/09 11:53:49;;;;;;;;;1.00;1.00;;;;;21.67;54.93;100483.66;4997617;28;45576;-55
2022/09/09 11:56:45;;;;;;;;;4.80;3.00;;;;;21.51;55.10;100470.97;4994427;28;45335;-59